Time;durP1;ratioP1;P1;durP2;ratioP2;P2;SDS_P1;SDS_P2;PMS_P1;PMS_P2;Temp;Humidity;BMP_temperature;BMP_pressure;BME280_temperature;BME280_humidity;BME280_pressure;Samples;Min_cycle;Max_cycle;Signal;HPM_P1;HPM_P2
2022/07/24 00:01:58;;;;;;;2.35;2.15;;;16.40;99.90;;;;;;5046366;28;20040;-60
2022/07/24 00:04:24;;;;;;;2.45;2.20;;;16.40;99.90;;;;;;5047168;28;20041;-60
2022/07/24 00:06:50;;;;;;;3.28;2.47;;;16.30;99.90;;;;;;5045594;28;20111;-60
2022/07/24 00:09:16;;;;;;;2.97;1.90;;;16.30;99.90;;;;;;5046288;28;20515;-60
2022/07/24 00:11:41;;;;;;;7.70;2.83;;;16.30;99.90;;;;;;5046330;28;20051;-60
2022/07/24 00:14:07;;;;;;;4.40;2.17;;;16.30;99.90;;;;;;5045601;28;20640;-60
2022/07/24 00:16:33;;;;;;;6.75;2.47;;;16.30;99.90;;;;;;5046117;28;20076;-60
2022/07/24 00:18:58;;;;;;;2.53;2.08;;;16.30;99.90;;;;;;5045918;28;20045;-60
2022/07/24 00:21:24;;;;;;;2.58;2.28;;;16.30;99.90;;;;;;5045867;28;20511;-60
2022/07/24 00:23:49;;;;;;;2.67;2.47;;;16.20;99.90;;;;;;5046311;28;20048;-60
2022/07/24 00:26:15;;;;;;;2.17;2.03;;;16.20;99.90;;;;;;5046023;28;20412;-61
2022/07/24 00:28:41;;;;;;;2.88;2.10;;;16.30;99.90;;;;;;5045528;28;20128;-60
2022/07/24 00:31:06;;;;;;;4.60;2.38;;;16.30;99.90;;;;;;5045833;28;20472;-60
2022/07/24 00:33:32;;;;;;;4.60;2.35;;;16.20;99.90;;;;;;5046353;28;20059;-60
2022/07/24 00:35:58;;;;;;;3.40;2.40;;;16.10;99.90;;;;;;5045314;28;20052;-60
2022/07/24 00:38:24;;;;;;;3.35;2.78;;;16.10;99.90;;;;;;5046440;28;20040;-60
2022/07/24 00:40:49;;;;;;;2.78;2.17;;;16.10;99.90;;;;;;5045057;28;20052;-60
2022/07/24 00:43:16;;;;;;;3.78;2.70;;;16.10;99.90;;;;;;5045872;28;20076;-60
2022/07/24 00:45:43;;;;;;;4.70;2.28;;;16.10;99.90;;;;;;5061366;28;20111;-60
2022/07/24 00:48:08;;;;;;;5.40;2.50;;;16.10;99.90;;;;;;5044983;28;20052;-60
2022/07/24 00:50:34;;;;;;;6.97;2.63;;;16.10;99.90;;;;;;5046104;28;20045;-60
2022/07/24 00:53:00;;;;;;;2.60;2.40;;;16.20;99.90;;;;;;5045619;28;20110;-60
2022/07/24 00:55:26;;;;;;;2.97;2.78;;;16.00;99.90;;;;;;5045462;28;20127;-60
2022/07/24 00:57:51;;;;;;;3.38;2.75;;;15.90;99.90;;;;;;5045407;28;20057;-60
2022/07/24 01:00:19;;;;;;;3.22;2.92;;;16.10;99.90;;;;;;5050012;28;20041;-60
2022/07/24 01:02:45;;;;;;;4.82;2.58;;;16.00;99.90;;;;;;5049247;28;20060;-60
2022/07/24 01:05:11;;;;;;;2.70;2.50;;;15.90;99.90;;;;;;5049506;28;20484;-60
2022/07/24 01:07:37;;;;;;;2.80;2.60;;;15.90;99.90;;;;;;5050214;28;20045;-60
2022/07/24 01:10:04;;;;;;;3.00;2.70;;;15.90;99.90;;;;;;5048688;28;20271;-60
2022/07/24 01:12:32;;;;;;;3.25;2.90;;;15.80;99.90;;;;;;5049990;28;20049;-60
2022/07/24 01:14:58;;;;;;;3.72;2.83;;;15.80;99.90;;;;;;5049696;28;20457;-60
2022/07/24 01:17:28;;;;;;;3.90;2.97;;;15.80;99.90;;;;;;5049669;28;20084;-60
2022/07/24 01:19:54;;;;;;;2.53;2.33;;;15.80;99.90;;;;;;5050443;28;20045;-60
2022/07/24 01:22:20;;;;;;;5.18;2.97;;;15.90;99.90;;;;;;5049754;28;20098;-60
2022/07/24 01:24:45;;;;;;;6.15;3.00;;;15.70;99.90;;;;;;5048373;28;20534;-60
2022/07/24 01:27:11;;;;;;;3.92;3.03;;;15.70;99.90;;;;;;5049631;28;20041;-60
2022/07/24 01:29:37;;;;;;;3.70;2.78;;;15.70;99.90;;;;;;5049474;28;20112;-59
2022/07/24 01:32:02;;;;;;;3.60;3.30;;;15.70;99.90;;;;;;5048208;28;20118;-60
2022/07/24 01:34:28;;;;;;;4.47;3.22;;;15.70;99.90;;;;;;5049286;28;20045;-60
2022/07/24 01:36:54;;;;;;;3.97;2.67;;;15.70;99.90;;;;;;5048642;28;20491;-60
2022/07/24 01:39:20;;;;;;;6.65;3.10;;;15.70;99.90;;;;;;5049244;28;20103;-60
2022/07/24 01:41:45;;;;;;;3.50;3.20;;;15.60;99.90;;;;;;5049010;28;20045;-59
2022/07/24 01:44:11;;;;;;;3.97;3.63;;;15.60;99.90;;;;;;5048332;28;20041;-60
2022/07/24 01:46:36;;;;;;;3.88;3.50;;;15.60;99.90;;;;;;5049050;28;20491;-60
2022/07/24 01:49:03;;;;;;;4.07;3.67;;;15.60;99.90;;;;;;5048585;28;20132;-59
2022/07/24 01:51:28;;;;;;;3.83;3.42;;;15.60;99.90;;;;;;5048311;28;20084;-60
2022/07/24 01:53:54;;;;;;;4.40;3.30;;;15.60;99.90;;;;;;5048913;28;20488;-60
2022/07/24 01:56:20;;;;;;;4.30;3.33;;;15.70;99.90;;;;;;5048707;28;20045;-60
2022/07/24 01:58:45;;;;;;;3.45;3.13;;;15.60;99.90;;;;;;5048015;28;20053;-60
2022/07/24 02:01:11;;;;;;;4.45;3.53;;;15.60;99.90;;;;;;5048728;28;20052;-60
2022/07/24 02:03:36;;;;;;;3.83;3.50;;;15.60;99.90;;;;;;5048650;28;20119;-60
2022/07/24 02:06:02;;;;;;;4.22;3.65;;;15.60;99.90;;;;;;5047449;28;20090;-60
2022/07/24 02:08:28;;;;;;;5.53;3.78;;;15.60;99.90;;;;;;5048297;28;20156;-59
2022/07/24 02:10:54;;;;;;;2.92;2.72;;;15.60;99.90;;;;;;5048056;28;20045;-60
2022/07/24 02:13:19;;;;;;;4.50;4.00;;;15.70;99.90;;;;;;5047980;28;20272;-60
2022/07/24 02:15:45;;;;;;;8.73;3.85;;;15.60;99.90;;;;;;5048515;28;20369;-60
2022/07/24 02:18:10;;;;;;;4.38;4.03;;;15.50;99.90;;;;;;5047166;28;20076;-60
2022/07/24 02:20:36;;;;;;;4.53;4.07;;;15.50;99.90;;;;;;5047400;28;20043;-60
2022/07/24 02:23:02;;;;;;;4.30;3.67;;;15.60;99.90;;;;;;5048285;28;20617;-60
2022/07/24 02:25:27;;;;;;;4.05;3.65;;;15.60;99.90;;;;;;5048161;28;20563;-59
2022/07/24 02:27:53;;;;;;;4.10;3.70;;;15.60;99.90;;;;;;5047629;28;20051;-60
2022/07/24 02:30:21;;;;;;;4.13;3.83;;;15.50;99.90;;;;;;5048213;28;20092;-59
2022/07/24 02:32:47;;;;;;;4.75;3.90;;;15.50;99.90;;;;;;5047678;28;20552;-60
2022/07/24 02:35:13;;;;;;;6.32;4.38;;;15.60;99.90;;;;;;5047214;28;20062;-60
2022/07/24 02:37:41;;;;;;;4.38;3.97;;;15.50;99.90;;;;;;5048059;28;20152;-60
2022/07/24 02:40:08;;;;;;;4.82;4.10;;;15.60;99.90;;;;;;5047522;28;20040;-59
2022/07/24 02:42:35;;;;;;;4.57;4.18;;;15.50;99.90;;;;;;5047286;28;20496;-59
2022/07/24 02:45:00;;;;;;;5.28;4.03;;;15.50;99.90;;;;;;5047492;28;20401;-59
2022/07/24 02:47:26;;;;;;;4.22;3.83;;;15.50;99.90;;;;;;5047534;28;20041;-60
2022/07/24 02:49:52;;;;;;;4.57;4.18;;;15.50;99.90;;;;;;5047430;28;20514;-60
2022/07/24 02:52:17;;;;;;;5.13;4.72;;;15.40;99.90;;;;;;5047812;28;20040;-60
2022/07/24 02:54:43;;;;;;;5.65;4.47;;;15.40;99.90;;;;;;5046916;28;20056;-59
2022/07/24 02:57:08;;;;;;;4.97;4.55;;;15.40;99.90;;;;;;5047328;28;20309;-58
2022/07/24 02:59:34;;;;;;;6.65;4.75;;;15.40;99.90;;;;;;5047548;28;20136;-60
2022/07/24 03:02:00;;;;;;;5.70;4.35;;;15.40;99.90;;;;;;5046385;28;20044;-60
2022/07/24 03:04:25;;;;;;;4.85;4.50;;;15.40;99.90;;;;;;5047851;28;20059;-60
2022/07/24 03:06:51;;;;;;;4.75;4.35;;;15.40;99.90;;;;;;5046885;28;20037;-60
2022/07/24 03:09:16;;;;;;;5.10;4.70;;;15.40;99.90;;;;;;5046606;28;20053;-60
2022/07/24 03:11:42;;;;;;;4.78;4.38;;;15.40;99.90;;;;;;5047628;28;20037;-59
2022/07/24 03:14:07;;;;;;;4.80;4.30;;;15.40;99.90;;;;;;5047099;28;20048;-60
2022/07/24 03:16:33;;;;;;;5.07;4.22;;;15.30;99.90;;;;;;5046673;28;20033;-59
2022/07/24 03:18:59;;;;;;;6.68;4.32;;;15.40;99.90;;;;;;5046780;28;20087;-60
2022/07/24 03:21:24;;;;;;;5.35;4.88;;;15.40;99.90;;;;;;5047440;28;20492;-60
2022/07/24 03:23:50;;;;;;;4.65;4.25;;;15.40;99.90;;;;;;5046220;28;20044;-60
2022/07/24 03:26:15;;;;;;;5.38;4.88;;;15.40;99.90;;;;;;5047097;28;20047;-60
2022/07/24 03:28:41;;;;;;;4.32;4.03;;;15.40;99.90;;;;;;5047097;28;20050;-60
2022/07/24 03:31:07;;;;;;;7.20;5.05;;;15.30;99.90;;;;;;5045816;28;20244;-59
2022/07/24 03:33:33;;;;;;;5.63;4.75;;;15.40;99.90;;;;;;5046643;28;20566;-60
2022/07/24 03:35:59;;;;;;;6.93;4.97;;;15.30;99.90;;;;;;5046268;28;20098;-59
2022/07/24 03:38:24;;;;;;;4.97;4.57;;;15.40;99.90;;;;;;5046668;28;20060;-59
2022/07/24 03:40:50;;;;;;;5.10;4.70;;;15.30;99.90;;;;;;5046437;28;20049;-59
2022/07/24 03:43:15;;;;;;;5.63;5.13;;;15.40;99.90;;;;;;5046644;28;20040;-59
2022/07/24 03:45:41;;;;;;;9.50;5.78;;;15.30;99.90;;;;;;5045906;28;20492;-60
2022/07/24 03:48:07;;;;;;;6.25;5.13;;;15.40;99.90;;;;;;5046509;28;20080;-60
2022/07/24 03:50:32;;;;;;;6.05;5.50;;;15.30;99.90;;;;;;5046051;28;20059;-60
2022/07/24 03:52:58;;;;;;;5.65;5.15;;;15.30;99.90;;;;;;5046310;28;20037;-60
2022/07/24 03:55:23;;;;;;;6.30;5.50;;;15.30;99.90;;;;;;5047071;28;20048;-59
2022/07/24 03:57:49;;;;;;;5.75;5.25;;;15.40;99.90;;;;;;5045367;28;20420;-60
2022/07/24 04:00:16;;;;;;;6.78;5.30;;;15.40;99.90;;;;;;5046441;28;20052;-59
2022/07/24 04:02:42;;;;;;;6.47;5.82;;;15.40;99.90;;;;;;5046622;28;20041;-59
2022/07/24 04:05:08;;;;;;;5.78;5.32;;;15.40;99.90;;;;;;5044053;28;20060;-59
2022/07/24 04:07:37;;;;;;;6.57;5.95;;;15.40;99.90;;;;;;5046708;28;20120;-60
2022/07/24 04:10:05;;;;;;;6.43;5.82;;;15.50;99.90;;;;;;5046355;28;20087;-59
2022/07/24 04:12:31;;;;;;;8.80;5.65;;;15.40;99.90;;;;;;5045958;28;20044;-60
2022/07/24 04:14:56;;;;;;;6.18;5.57;;;15.40;99.90;;;;;;5046667;28;20045;-60
2022/07/24 04:17:22;;;;;;;5.68;5.18;;;15.40;99.90;;;;;;5046755;28;20426;-59
2022/07/24 04:19:48;;;;;;;5.85;5.25;;;15.40;99.90;;;;;;5045267;28;20052;-60
2022/07/24 04:22:13;;;;;;;5.90;5.32;;;15.40;99.90;;;;;;5046506;28;20408;-59
2022/07/24 04:24:39;;;;;;;6.93;5.70;;;15.50;99.90;;;;;;5046211;28;20048;-59
2022/07/24 04:27:04;;;;;;;6.05;5.45;;;15.50;99.90;;;;;;5045343;28;20211;-59
2022/07/24 04:29:30;;;;;;;6.18;5.55;;;15.50;99.90;;;;;;5046518;28;20055;-59
2022/07/24 04:31:56;;;;;;;6.05;5.55;;;15.50;99.90;;;;;;5046299;28;20484;-60
2022/07/24 04:34:21;;;;;;;5.03;4.55;;;15.50;99.90;;;;;;5047477;28;20163;-60
2022/07/24 04:36:47;;;;;;;5.72;5.25;;;15.40;99.90;;;;;;5050041;28;20045;-60
2022/07/24 04:39:13;;;;;;;6.65;5.60;;;15.50;99.90;;;;;;5050369;28;20075;-60
2022/07/24 04:41:39;;;;;;;6.40;5.78;;;15.50;99.90;;;;;;5049705;28;20041;-60
2022/07/24 04:44:04;;;;;;;6.90;5.65;;;15.70;99.90;;;;;;5049542;28;20446;-60
2022/07/24 04:46:30;;;;;;;8.05;5.82;;;15.60;99.90;;;;;;5050649;28;20076;-60
2022/07/24 04:48:55;;;;;;;5.80;5.15;;;15.60;99.90;;;;;;5049519;28;20041;-59
2022/07/24 04:51:21;;;;;;;6.40;5.75;;;15.60;99.90;;;;;;5050204;28;20032;-60
2022/07/24 04:53:47;;;;;;;6.57;5.97;;;15.70;99.90;;;;;;5049941;28;20067;-60
2022/07/24 04:56:13;;;;;;;6.47;5.47;;;15.70;99.90;;;;;;5049471;28;20049;-60
2022/07/24 04:58:38;;;;;;;5.63;5.13;;;15.70;99.90;;;;;;5049751;28;20060;-59
2022/07/24 05:01:04;;;;;;;6.30;5.57;;;15.80;99.90;;;;;;5048976;28;20044;-60
2022/07/24 05:03:30;;;;;;;5.78;5.10;;;15.90;99.90;;;;;;5049822;28;20128;-60
2022/07/24 05:05:56;;;;;;;7.28;5.78;;;15.90;99.90;;;;;;5050107;28;20430;-60
2022/07/24 05:08:22;;;;;;;5.32;4.93;;;16.00;99.90;;;;;;5049811;28;20426;-60
2022/07/24 05:10:48;;;;;;;6.22;5.65;;;16.00;99.90;;;;;;5049482;28;20455;-59
2022/07/24 05:13:13;;;;;;;7.63;6.50;;;16.00;99.90;;;;;;5049610;28;20119;-59
2022/07/24 05:15:39;;;;;;;6.30;5.72;;;16.10;99.90;;;;;;5049038;28;20051;-60
2022/07/24 05:18:04;;;;;;;6.53;5.88;;;16.10;99.90;;;;;;5064515;28;20045;-60
2022/07/24 05:20:30;;;;;;;8.25;5.85;;;16.10;99.90;;;;;;5049720;28;20132;-60
2022/07/24 05:22:56;;;;;;;5.95;5.35;;;16.20;99.90;;;;;;5049160;28;20049;-60
2022/07/24 05:25:21;;;;;;;7.18;5.85;;;16.10;99.90;;;;;;5049440;28;20060;-59
2022/07/24 05:27:47;;;;;;;7.28;6.18;;;16.20;99.90;;;;;;5049297;28;20045;-60
2022/07/24 05:30:13;;;;;;;7.40;6.53;;;16.30;99.90;;;;;;5048706;28;20110;-59
2022/07/24 05:32:38;;;;;;;6.80;6.20;;;16.30;99.90;;;;;;5050152;28;20094;-60
2022/07/24 05:35:05;;;;;;;7.82;6.47;;;16.40;99.90;;;;;;5051515;28;20416;-59
2022/07/24 05:37:30;;;;;;;7.45;6.32;;;16.40;99.90;;;;;;5053472;28;20045;-60
2022/07/24 05:39:56;;;;;;;7.68;6.07;;;16.50;99.90;;;;;;5053474;28;20044;-60
2022/07/24 05:42:21;;;;;;;10.88;6.75;;;16.50;99.90;;;;;;5050439;28;20476;-61
2022/07/24 05:44:47;;;;;;;6.80;6.20;;;16.60;99.90;;;;;;5050386;28;20049;-61
2022/07/24 05:47:13;;;;;;;7.93;7.22;;;16.60;99.90;;;;;;5049002;28;20048;-60
2022/07/24 05:49:38;;;;;;;8.90;6.57;;;16.70;99.90;;;;;;5049441;28;20485;-60
2022/07/24 05:52:04;;;;;;;7.38;6.68;;;16.70;99.90;;;;;;5048205;28;20079;-60
2022/07/24 05:54:30;;;;;;;8.55;7.57;;;16.80;99.90;;;;;;5049102;28;20124;-60
2022/07/24 05:56:55;;;;;;;10.13;7.85;;;16.90;99.90;;;;;;5048951;28;20452;-60
2022/07/24 05:59:21;;;;;;;10.20;7.10;;;16.90;99.90;;;;;;5048218;28;20053;-60
2022/07/24 06:01:46;;;;;;;8.82;7.28;;;17.00;99.90;;;;;;5048568;28;20532;-60
2022/07/24 06:04:12;;;;;;;9.38;8.38;;;17.10;99.90;;;;;;5048053;28;20128;-60
2022/07/24 06:06:38;;;;;;;8.13;7.18;;;17.20;99.90;;;;;;5048731;28;20045;-60
2022/07/24 06:09:04;;;;;;;10.23;6.80;;;17.30;99.90;;;;;;5048524;28;20055;-60
2022/07/24 06:11:30;;;;;;;8.43;7.18;;;17.40;99.90;;;;;;5048047;28;20045;-60
2022/07/24 06:13:55;;;;;;;8.35;7.55;;;17.50;99.90;;;;;;5048546;28;20041;-60
2022/07/24 06:16:21;;;;;;;7.95;7.22;;;17.60;99.90;;;;;;5048530;28;20139;-60
2022/07/24 06:18:46;;;;;;;9.30;7.93;;;17.50;99.90;;;;;;5047633;28;20033;-60
2022/07/24 06:21:12;;;;;;;9.80;8.82;;;17.60;99.90;;;;;;5048552;28;20049;-60
2022/07/24 06:23:38;;;;;;;9.25;8.02;;;17.70;99.90;;;;;;5048233;28;20081;-60
2022/07/24 06:26:03;;;;;;;9.93;8.93;;;17.80;99.90;;;;;;5047240;28;20520;-60
2022/07/24 06:28:29;;;;;;;7.93;6.90;;;17.90;99.90;;;;;;5048155;28;20045;-60
2022/07/24 06:30:55;;;;;;;9.93;8.93;;;17.90;99.90;;;;;;5047777;28;20064;-60
2022/07/24 06:33:21;;;;;;;9.75;8.60;;;18.00;99.90;;;;;;5047406;28;20451;-60
2022/07/24 06:35:46;;;;;;;11.25;10.07;;;18.10;99.90;;;;;;5047893;28;20048;-60
2022/07/24 06:38:12;;;;;;;12.68;9.45;;;18.20;99.90;;;;;;5047966;28;20044;-60
2022/07/24 06:40:38;;;;;;;10.38;9.25;;;18.20;99.90;;;;;;5047136;28;20045;-60
2022/07/24 06:43:04;;;;;;;10.32;9.32;;;18.30;99.90;;;;;;5047144;28;20124;-60
2022/07/24 06:45:32;;;;;;;10.20;8.77;;;18.40;99.90;;;;;;5047852;28;20137;-60
2022/07/24 06:48:01;;;;;;;12.55;9.48;;;18.40;99.90;;;;;;5047048;28;20041;-60
2022/07/24 06:50:28;;;;;;;11.15;10.02;;;18.50;99.90;;;;;;5048399;28;20055;-60
2022/07/24 06:52:53;;;;;;;11.38;10.18;;;18.70;99.90;;;;;;5047636;28;20377;-60
2022/07/24 06:55:19;;;;;;;13.43;10.40;;;18.70;99.90;;;;;;5046672;28;20106;-60
2022/07/24 06:57:45;;;;;;;11.60;9.95;;;18.80;99.90;;;;;;5047505;28;20052;-60
2022/07/24 07:00:12;;;;;;;14.45;10.63;;;18.90;99.90;;;;;;5046146;28;20472;-60
2022/07/24 07:02:38;;;;;;;13.55;11.30;;;19.00;99.90;;;;;;5047079;28;20045;-60
2022/07/24 07:05:05;;;;;;;11.38;10.25;;;19.20;99.90;;;;;;5047205;28;20053;-60
2022/07/24 07:07:31;;;;;;;12.88;11.32;;;19.20;99.90;;;;;;5046560;28;20503;-60
2022/07/24 07:09:57;;;;;;;12.02;10.82;;;19.30;99.90;;;;;;5047186;28;20553;-60
2022/07/24 07:12:23;;;;;;;10.95;9.70;;;19.40;99.90;;;;;;5048098;28;20049;-60
2022/07/24 07:14:49;;;;;;;13.57;10.55;;;19.40;99.90;;;;;;5046122;28;20253;-60
2022/07/24 07:17:15;;;;;;;11.68;10.48;;;19.50;99.90;;;;;;5047233;28;20571;-60
2022/07/24 07:19:42;;;;;;;13.13;10.40;;;19.60;99.90;;;;;;5047140;28;20492;-60
2022/07/24 07:22:08;;;;;;;11.73;10.23;;;19.70;99.90;;;;;;5045842;28;20053;-60
2022/07/24 07:24:34;;;;;;;11.10;9.68;;;19.90;99.90;;;;;;5047166;28;20567;-60
2022/07/24 07:27:00;;;;;;;10.30;9.15;;;20.00;99.90;;;;;;5046648;28;20120;-60
2022/07/24 07:29:26;;;;;;;11.77;8.15;;;20.20;99.90;;;;;;5046834;28;20037;-60
2022/07/24 07:31:51;;;;;;;9.70;7.93;;;20.30;99.90;;;;;;5046630;28;20120;-60
2022/07/24 07:34:17;;;;;;;10.25;7.75;;;20.50;99.90;;;;;;5047024;28;20103;-60
2022/07/24 07:36:43;;;;;;;9.07;7.70;;;20.80;99.90;;;;;;5046056;28;20044;-60
2022/07/24 07:39:08;;;;;;;10.70;7.50;;;20.90;99.90;;;;;;5046581;28;20427;-60
2022/07/24 07:41:34;;;;;;;7.50;6.80;;;21.00;99.90;;;;;;5046957;28;20621;-60
2022/07/24 07:44:01;;;;;;;9.15;6.00;;;20.90;99.90;;;;;;5045533;28;20120;-60
2022/07/24 07:46:26;;;;;;;12.13;6.75;;;20.90;99.90;;;;;;5047191;28;20077;-60
2022/07/24 07:48:52;;;;;;;10.85;6.50;;;20.90;99.90;;;;;;5046910;28;20778;-60
2022/07/24 07:51:18;;;;;;;9.65;5.82;;;20.80;99.90;;;;;;5045964;28;20072;-60
2022/07/24 07:53:44;;;;;;;5.93;5.38;;;20.80;99.90;;;;;;5046720;28;20087;-60
2022/07/24 07:56:10;;;;;;;7.13;5.43;;;20.90;99.90;;;;;;5046287;28;20081;-60
2022/07/24 07:58:35;;;;;;;5.75;5.00;;;20.90;99.90;;;;;;5045169;28;20053;-60
2022/07/24 08:01:01;;;;;;;7.78;5.32;;;20.90;99.90;;;;;;5046410;28;20041;-60
2022/07/24 08:03:27;;;;;;;6.80;5.45;;;21.00;99.90;;;;;;5046905;28;20053;-60
2022/07/24 08:05:52;;;;;;;5.38;4.88;;;21.00;99.90;;;;;;5044561;28;20057;-60
2022/07/24 08:08:18;;;;;;;5.90;5.30;;;21.10;99.90;;;;;;5045414;28;20048;-60
2022/07/24 08:10:43;;;;;;;8.38;5.28;;;21.20;99.90;;;;;;5046517;28;20396;-60
2022/07/24 08:13:11;;;;;;;6.68;5.32;;;21.30;99.90;;;;;;5045598;28;20052;-60
2022/07/24 08:15:36;;;;;;;5.50;5.00;;;21.30;99.90;;;;;;5046578;28;20041;-60
2022/07/24 08:18:02;;;;;;;6.38;4.78;;;21.50;99.90;;;;;;5045101;28;20178;-60
2022/07/24 08:20:28;;;;;;;5.18;4.72;;;21.60;99.90;;;;;;5046349;28;20045;-60
2022/07/24 08:22:54;;;;;;;6.10;5.15;;;21.70;99.90;;;;;;5046470;28;20043;-60
2022/07/24 08:25:20;;;;;;;6.32;4.15;;;21.80;99.90;;;;;;5045267;28;20056;-60
2022/07/24 08:27:46;;;;;;;5.13;4.38;;;21.80;99.90;;;;;;5046352;28;20072;-60
2022/07/24 08:30:12;;;;;;;4.85;4.35;;;21.80;99.90;;;;;;5045982;28;20489;-60
2022/07/24 08:32:38;;;;;;;4.93;3.95;;;21.80;99.90;;;;;;5045575;28;20037;-60
2022/07/24 08:35:05;;;;;;;4.68;3.60;;;21.80;99.90;;;;;;5045821;28;20037;-60
2022/07/24 08:37:36;;;;;;;5.15;3.72;;;21.80;99.90;;;;;;5046459;28;20043;-60
2022/07/24 08:40:01;;;;;;;5.75;4.13;;;21.80;99.90;;;;;;5045220;28;20056;-60
2022/07/24 08:42:27;;;;;;;5.80;3.95;;;21.90;99.90;;;;;;5046720;28;20041;-60
2022/07/24 08:44:53;;;;;;;5.10;3.60;;;22.00;99.90;;;;;;5044811;28;20411;-60
2022/07/24 08:47:19;;;;;;;4.38;3.67;;;22.10;99.90;;;;;;5045276;28;20041;-60
2022/07/24 08:49:46;;;;;;;3.95;3.53;;;22.10;99.90;;;;;;5046226;28;20045;-60
2022/07/24 08:52:14;;;;;;;3.80;3.17;;;22.10;99.90;;;;;;5045925;28;20048;-60
2022/07/24 08:54:40;;;;;;;4.22;3.75;;;22.20;99.90;;;;;;5045430;28;20452;-60
2022/07/24 08:57:05;;;;;;;4.40;4.00;;;22.30;99.90;;;;;;5045305;28;20132;-60
2022/07/24 08:59:32;;;;;;;8.52;3.97;;;22.30;99.90;;;;;;5045831;28;20440;-60
2022/07/24 09:01:58;;;;;;;7.45;3.78;;;22.30;99.90;;;;;;5044920;28;20072;-60
2022/07/24 09:04:34;;;;;;;5.88;4.30;;;22.30;99.90;;;;;;5046092;28;20491;-60
2022/07/24 09:07:01;;;;;;;7.82;4.13;;;22.20;99.90;;;;;;5045233;28;20037;-60
2022/07/24 09:09:27;;;;;;;4.57;4.18;;;22.20;99.90;;;;;;5046080;28;20370;-60
2022/07/24 09:12:14;;;;;;;4.00;3.60;;;22.10;99.90;;;;;;5046060;28;20049;-60
2022/07/24 09:14:43;;;;;;;4.10;3.42;;;22.20;99.90;;;;;;5045069;28;20049;-60
2022/07/24 09:17:11;;;;;;;6.90;4.00;;;22.30;99.90;;;;;;5045296;28;20091;-60
2022/07/24 09:19:54;;;;;;;3.83;3.05;;;22.60;99.90;;;;;;5046473;28;20045;-60
2022/07/24 09:22:35;;;;;;;5.95;3.35;;;22.90;99.90;;;;;;5049132;28;20178;-60
2022/07/24 09:25:18;;;;;;;3.03;2.67;;;23.00;99.90;;;;;;5049091;28;20045;-60
2022/07/24 09:28:06;;;;;;;4.97;3.15;;;23.10;99.90;;;;;;5049427;28;20408;-60
2022/07/24 09:30:37;;;;;;;4.55;2.75;;;23.20;99.90;;;;;;5049500;28;20049;-60
2022/07/24 09:33:06;;;;;;;3.35;3.05;;;23.20;99.90;;;;;;5049244;28;20043;-60
2022/07/24 09:35:32;;;;;;;4.35;2.92;;;23.20;99.90;;;;;;5048648;28;20060;-60
2022/07/24 09:38:00;;;;;;;3.75;3.03;;;23.30;99.90;;;;;;5048658;28;20128;-60
2022/07/24 09:40:31;;;;;;;2.88;2.67;;;23.50;99.90;;;;;;5049457;28;20052;-60
2022/07/24 09:43:18;;;;;;;3.05;2.72;;;23.60;99.90;;;;;;5048971;28;20041;-60
2022/07/24 09:45:55;;;;;;;4.50;2.33;;;23.70;99.90;;;;;;5049155;28;20045;-60
2022/07/24 09:48:23;;;;;;;3.80;2.80;;;23.80;99.90;;;;;;5049038;28;20067;-60
2022/07/24 09:50:50;;;;;;;5.32;2.78;;;24.00;99.90;;;;;;5047682;28;20067;-60
2022/07/24 09:53:21;;;;;;;5.35;2.53;;;24.10;99.90;;;;;;5049139;28;20041;-60
2022/07/24 09:56:17;;;;;;;5.07;2.47;;;24.10;99.90;;;;;;5048916;28;20605;-60
2022/07/24 09:58:45;;;;;;;3.22;2.58;;;24.20;99.90;;;;;;5043982;28;20052;-60
2022/07/24 10:01:12;;;;;;;3.35;2.40;;;24.20;99.90;;;;;;5048862;28;20052;-60
2022/07/24 10:03:41;;;;;;;3.38;2.45;;;24.10;99.90;;;;;;5048099;28;20447;-60
2022/07/24 10:06:09;;;;;;;3.83;2.92;;;24.00;99.90;;;;;;5048691;28;20041;-60
2022/07/24 10:08:36;;;;;;;2.53;2.33;;;24.10;99.90;;;;;;5048938;28;20049;-60
2022/07/24 10:11:02;;;;;;;3.55;2.38;;;24.00;99.90;;;;;;5047701;28;20059;-61
2022/07/24 10:13:29;;;;;;;3.03;2.42;;;24.00;99.90;;;;;;5048740;28;20048;-61
2022/07/24 10:16:25;;;;;;;2.88;2.40;;;23.90;99.90;;;;;;5048725;28;20480;-61
2022/07/24 10:18:52;;;;;;;3.85;2.35;;;23.90;99.90;;;;;;5047697;28;20071;-61
2022/07/24 10:21:22;;;;;;;2.92;2.28;;;23.90;99.90;;;;;;5048352;28;20056;-61
2022/07/24 10:24:10;;;;;;;2.90;2.47;;;23.90;99.90;;;;;;5048175;28;20036;-61
2022/07/24 10:26:37;;;;;;;3.47;2.35;;;23.80;99.90;;;;;;5047738;28;20397;-61
2022/07/24 10:29:13;;;;;;;3.50;2.40;;;23.80;99.90;;;;;;5047899;28;20045;-61
2022/07/24 10:31:59;;;;;;;3.10;2.50;;;23.70;99.90;;;;;;5046879;28;20142;-61
2022/07/24 10:34:55;;;;;;;3.53;2.30;;;23.60;99.90;;;;;;5048240;28;20080;-61
2022/07/24 10:37:37;;;;;;;5.53;2.40;;;23.70;99.90;;;;;;5048043;28;20550;-61
2022/07/24 10:40:14;;;;;;;2.20;2.00;;;23.80;99.90;;;;;;5047087;28;20048;-61
2022/07/24 10:43:13;;;;;;;4.00;2.33;;;24.00;99.90;;;;;;5047772;28;20049;-61
2022/07/24 10:45:46;;;;;;;2.15;2.05;;;24.20;99.90;;;;;;5043114;28;20061;-60
2022/07/24 10:48:20;;;;;;;3.63;2.90;;;24.60;99.90;;;;;;5048085;28;20404;-61
2022/07/24 10:51:07;;;;;;;3.95;2.75;;;24.70;99.90;;;;;;5047687;28;20052;-61
2022/07/24 10:53:38;;;;;;;2.35;2.15;;;24.80;99.90;;;;;;5047336;28;20049;-61
2022/07/24 10:56:32;;;;;;;2.60;2.10;;;24.70;99.90;;;;;;5047350;28;20049;-61
2022/07/24 10:59:00;;;;;;;2.92;2.40;;;24.70;99.90;;;;;;5047549;28;20057;-61
2022/07/24 11:01:31;;;;;;;2.88;2.63;;;24.70;99.90;;;;;;5047336;28;20496;-61
2022/07/24 11:03:58;;;;;;;3.15;2.10;;;24.70;99.90;;;;;;5047652;28;20124;-61
2022/07/24 11:07:08;;;;;;;6.13;2.30;;;24.70;99.90;;;;;;5048129;28;20048;-61
2022/07/24 11:09:58;;;;;;;4.07;2.30;;;24.70;99.90;;;;;;5037107;28;20455;-61
2022/07/24 11:12:31;;;;;;;3.13;2.05;;;24.90;99.90;;;;;;5047926;28;20491;-61
2022/07/24 11:17:49;;;;;;;;;;;25.20;99.90;;;;;;5047662;28;20044;-61
2022/07/24 11:20:22;;;;;;;2.65;2.20;;;25.40;99.90;;;;;;5047353;28;19967;-61
2022/07/24 11:22:57;;;;;;;5.05;2.42;;;25.50;99.90;;;;;;5046219;28;20971;-61
2022/07/24 11:25:30;;;;;;;3.13;2.33;;;25.60;99.90;;;;;;5047462;28;20057;-61
2022/07/24 11:28:12;;;;;;;4.40;2.22;;;25.60;99.90;;;;;;5047066;28;20069;-61
2022/07/24 11:30:43;;;;;;;3.70;2.08;;;25.60;99.90;;;;;;5047303;28;20044;-61
2022/07/24 11:33:10;;;;;;;2.30;2.00;;;25.70;99.90;;;;;;5046552;28;20041;-61
2022/07/24 11:35:38;;;;;;;5.03;2.40;;;25.80;99.90;;;;;;5046286;28;20055;-61
2022/07/24 11:38:06;;;;;;;4.78;2.20;;;25.90;99.90;;;;;;5046926;28;20441;-61
2022/07/24 11:40:33;;;;;;;2.38;1.90;;;26.00;99.90;;;;;;5046951;28;20044;-61
2022/07/24 11:43:01;;;;;;;2.53;1.85;;;26.10;99.90;;;;;;5046103;28;20069;-61
2022/07/24 11:45:27;;;;;;;3.33;1.95;;;26.20;99.90;;;;;;5047012;28;20049;-61
2022/07/24 11:47:54;;;;;;;2.35;2.13;;;26.20;99.90;;;;;;5047047;28;20041;-61
2022/07/24 11:50:23;;;;;;;4.47;2.22;;;26.30;99.90;;;;;;5046229;28;20084;-61
2022/07/24 11:52:49;;;;;;;10.95;2.78;;;26.30;99.90;;;;;;5046589;28;20053;-61
2022/07/24 11:55:18;;;;;;;5.80;1.73;;;26.30;99.90;;;;;;5046776;28;20041;-61
2022/07/24 11:57:50;;;;;;;2.05;1.80;;;26.40;99.90;;;;;;5045683;28;20061;-61
2022/07/24 12:00:21;;;;;;;2.88;2.13;;;26.50;99.90;;;;;;5046851;28;20060;-61
2022/07/24 12:02:49;;;;;;;5.88;2.30;;;26.70;99.90;;;;;;5046698;28;20102;-61
2022/07/24 12:05:25;;;;;;;4.90;2.50;;;26.80;99.90;;;;;;5046039;28;20098;-61
2022/07/24 12:07:51;;;;;;;3.33;2.30;;;26.80;99.90;;;;;;5046195;28;20045;-61
2022/07/24 12:10:22;;;;;;;2.60;2.40;;;26.90;99.90;;;;;;5045958;28;20305;-61
2022/07/24 12:12:49;;;;;;;2.38;1.60;;;26.80;99.90;;;;;;5046423;28;20033;-61
2022/07/24 12:15:15;;;;;;;2.90;1.85;;;26.80;99.90;;;;;;5046583;28;20473;-61
2022/07/24 12:17:59;;;;;;;3.30;1.90;;;26.80;99.90;;;;;;5045996;28;20118;-61
2022/07/24 12:20:37;;;;;;;2.72;2.20;;;26.90;99.90;;;;;;5046963;28;20405;-61
2022/07/24 12:23:16;;;;;;;2.13;1.92;;;27.00;99.90;;;;;;5045890;28;20084;-61
2022/07/24 12:25:43;;;;;;;3.40;1.95;;;27.10;99.90;;;;;;5046116;28;20037;-61
2022/07/24 12:28:11;;;;;;;5.43;1.98;;;27.10;99.90;;;;;;5045970;28;20071;-61
2022/07/24 12:30:45;;;;;;;2.72;2.25;;;27.20;99.90;;;;;;5046365;28;20457;-61
2022/07/24 12:33:14;;;;;;;6.82;1.95;;;27.20;99.90;;;;;;5045331;28;20045;-61
2022/07/24 12:35:54;;;;;;;2.47;2.03;;;27.20;99.90;;;;;;5046311;28;20061;-61
2022/07/24 12:38:46;;;;;;;3.63;2.28;;;27.30;99.90;;;;;;5045547;28;20041;-61
2022/07/24 12:41:16;;;;;;;1.95;1.85;;;27.30;99.90;;;;;;5042818;28;20053;-61
2022/07/24 12:43:47;;;;;;;2.17;1.98;;;27.30;99.90;;;;;;5045925;28;20547;-61
2022/07/24 12:46:13;;;;;;;2.73;2.23;;;27.40;99.90;;;;;;5045413;28;20472;-61
2022/07/24 12:48:38;;;;;;;3.33;2.03;;;27.50;99.90;;;;;;5046237;28;20306;-61
2022/07/24 12:51:10;;;;;;;2.38;2.17;;;27.60;99.90;;;;;;5045958;28;20044;-61
2022/07/24 12:53:39;;;;;;;2.50;2.13;;;27.70;99.90;;;;;;5045483;28;20472;-61